sensor_id;sensor_type;location;lat;lon;timestamp;P1;durP1;ratioP1;P2;durP2;ratioP2
70899;SDS011;67902;52.154;5.430;2024-01-16T00:02:07;5.82;;;1.33;;
70899;SDS011;67902;52.154;5.430;2024-01-16T00:04:38;7.70;;;1.27;;
70899;SDS011;67902;52.154;5.430;2024-01-16T00:07:06;7.60;;;1.05;;
70899;SDS011;67902;52.154;5.430;2024-01-16T00:09:33;5.95;;;1.23;;
70899;SDS011;67902;52.154;5.430;2024-01-16T00:12:01;8.68;;;1.42;;
70899;SDS011;67902;52.154;5.430;2024-01-16T00:14:34;4.88;;;0.82;;
70899;SDS011;67902;52.154;5.430;2024-01-16T00:17:02;4.82;;;1.20;;
70899;SDS011;67902;52.154;5.430;2024-01-16T00:19:29;2.47;;;0.60;;
70899;SDS011;67902;52.154;5.430;2024-01-16T00:21:56;3.38;;;1.00;;
70899;SDS011;67902;52.154;5.430;2024-01-16T00:24:22;2.88;;;0.82;;
70899;SDS011;67902;52.154;5.430;2024-01-16T00:26:49;8.25;;;0.95;;
70899;SDS011;67902;52.154;5.430;2024-01-16T00:29:17;5.10;;;0.65;;
70899;SDS011;67902;52.154;5.430;2024-01-16T00:31:44;4.72;;;0.90;;
70899;SDS011;67902;52.154;5.430;2024-01-16T00:34:10;1.02;;;0.28;;
70899;SDS011;67902;52.154;5.430;2024-01-16T00:36:37;3.92;;;0.93;;
70899;SDS011;67902;52.154;5.430;2024-01-16T00:39:03;5.18;;;0.90;;
70899;SDS011;67902;52.154;5.430;2024-01-16T00:41:30;6.30;;;1.13;;
70899;SDS011;67902;52.154;5.430;2024-01-16T00:43:56;5.43;;;2.45;;
70899;SDS011;67902;52.154;5.430;2024-01-16T00:46:23;2.13;;;0.65;;
70899;SDS011;67902;52.154;5.430;2024-01-16T00:48:49;8.30;;;1.35;;
70899;SDS011;67902;52.154;5.430;2024-01-16T00:51:16;9.48;;;1.00;;
70899;SDS011;67902;52.154;5.430;2024-01-16T00:53:43;5.22;;;0.93;;
70899;SDS011;67902;52.154;5.430;2024-01-16T00:56:10;5.35;;;1.10;;
70899;SDS011;67902;52.154;5.430;2024-01-16T00:58:38;4.72;;;0.90;;
70899;SDS011;67902;52.154;5.430;2024-01-16T01:01:05;11.95;;;1.40;;
70899;SDS011;67902;52.154;5.430;2024-01-16T01:03:32;2.33;;;0.50;;
70899;SDS011;67902;52.154;5.430;2024-01-16T01:05:59;4.25;;;0.90;;
70899;SDS011;67902;52.154;5.430;2024-01-16T01:10:53;8.55;;;2.13;;
70899;SDS011;67902;52.154;5.430;2024-01-16T01:13:20;3.42;;;1.08;;
70899;SDS011;67902;52.154;5.430;2024-01-16T01:15:47;3.38;;;0.88;;
70899;SDS011;67902;52.154;5.430;2024-01-16T01:18:13;4.82;;;1.35;;
70899;SDS011;67902;52.154;5.430;2024-01-16T01:20:40;6.60;;;1.10;;
70899;SDS011;67902;52.154;5.430;2024-01-16T01:23:07;9.05;;;1.00;;
70899;SDS011;67902;52.154;5.430;2024-01-16T01:25:33;5.45;;;1.15;;
70899;SDS011;67902;52.154;5.430;2024-01-16T01:28:00;13.20;;;1.30;;
70899;SDS011;67902;52.154;5.430;2024-01-16T01:30:26;6.55;;;1.40;;
70899;SDS011;67902;52.154;5.430;2024-01-16T01:32:53;5.88;;;1.55;;
70899;SDS011;67902;52.154;5.430;2024-01-16T01:35:19;6.32;;;1.50;;
70899;SDS011;67902;52.154;5.430;2024-01-16T01:37:46;3.35;;;0.77;;
70899;SDS011;67902;52.154;5.430;2024-01-16T01:40:13;2.25;;;0.70;;
70899;SDS011;67902;52.154;5.430;2024-01-16T01:42:42;11.30;;;1.00;;
70899;SDS011;67902;52.154;5.430;2024-01-16T01:45:09;2.30;;;0.50;;
70899;SDS011;67902;52.154;5.430;2024-01-16T01:47:39;9.93;;;0.90;;
70899;SDS011;67902;52.154;5.430;2024-01-16T01:50:10;6.68;;;1.35;;
70899;SDS011;67902;52.154;5.430;2024-01-16T01:52:38;6.47;;;1.40;;
70899;SDS011;67902;52.154;5.430;2024-01-16T01:55:16;6.13;;;1.15;;
70899;SDS011;67902;52.154;5.430;2024-01-16T01:57:42;4.38;;;1.15;;
70899;SDS011;67902;52.154;5.430;2024-01-16T02:00:10;6.47;;;1.77;;
70899;SDS011;67902;52.154;5.430;2024-01-16T02:02:37;4.32;;;1.20;;
70899;SDS011;67902;52.154;5.430;2024-01-16T02:05:04;3.90;;;0.80;;
70899;SDS011;67902;52.154;5.430;2024-01-16T02:07:31;7.20;;;0.85;;
70899;SDS011;67902;52.154;5.430;2024-01-16T02:12:26;2.72;;;0.80;;
70899;SDS011;67902;52.154;5.430;2024-01-16T02:14:53;5.68;;;0.63;;
70899;SDS011;67902;52.154;5.430;2024-01-16T02:17:19;3.22;;;0.30;;
70899;SDS011;67902;52.154;5.430;2024-01-16T02:19:46;4.72;;;0.80;;
70899;SDS011;67902;52.154;5.430;2024-01-16T02:22:16;1.60;;;0.35;;
70899;SDS011;67902;52.154;5.430;2024-01-16T02:27:14;4.40;;;0.68;;
70899;SDS011;67902;52.154;5.430;2024-01-16T02:29:41;3.92;;;1.15;;
70899;SDS011;67902;52.154;5.430;2024-01-16T02:32:10;6.45;;;1.10;;
70899;SDS011;67902;52.154;5.430;2024-01-16T02:34:39;6.85;;;1.02;;
70899;SDS011;67902;52.154;5.430;2024-01-16T02:37:06;3.53;;;0.63;;
70899;SDS011;67902;52.154;5.430;2024-01-16T02:39:32;3.97;;;1.13;;
70899;SDS011;67902;52.154;5.430;2024-01-16T02:41:59;4.75;;;0.90;;
70899;SDS011;67902;52.154;5.430;2024-01-16T02:44:25;7.80;;;1.27;;
70899;SDS011;67902;52.154;5.430;2024-01-16T02:46:52;3.58;;;0.98;;
70899;SDS011;67902;52.154;5.430;2024-01-16T02:49:19;2.35;;;0.80;;
70899;SDS011;67902;52.154;5.430;2024-01-16T02:51:46;1.75;;;0.60;;
70899;SDS011;67902;52.154;5.430;2024-01-16T02:54:13;6.57;;;1.08;;
70899;SDS011;67902;52.154;5.430;2024-01-16T02:56:40;2.90;;;0.60;;
70899;SDS011;67902;52.154;5.430;2024-01-16T02:59:06;3.88;;;0.85;;
70899;SDS011;67902;52.154;5.430;2024-01-16T03:01:34;5.93;;;0.85;;
70899;SDS011;67902;52.154;5.430;2024-01-16T03:04:00;4.15;;;0.93;;
70899;SDS011;67902;52.154;5.430;2024-01-16T03:06:27;2.85;;;0.70;;
70899;SDS011;67902;52.154;5.430;2024-01-16T03:08:55;1.05;;;0.38;;
70899;SDS011;67902;52.154;5.430;2024-01-16T03:11:22;2.40;;;0.68;;
70899;SDS011;67902;52.154;5.430;2024-01-16T03:13:48;1.75;;;0.52;;
70899;SDS011;67902;52.154;5.430;2024-01-16T03:16:18;2.92;;;0.60;;
70899;SDS011;67902;52.154;5.430;2024-01-16T03:18:45;3.97;;;0.77;;
70899;SDS011;67902;52.154;5.430;2024-01-16T03:21:12;2.05;;;0.50;;
70899;SDS011;67902;52.154;5.430;2024-01-16T03:23:39;4.20;;;0.65;;
70899;SDS011;67902;52.154;5.430;2024-01-16T03:26:06;0.93;;;0.25;;
70899;SDS011;67902;52.154;5.430;2024-01-16T03:28:33;2.38;;;0.50;;
70899;SDS011;67902;52.154;5.430;2024-01-16T03:30:59;0.68;;;0.20;;
70899;SDS011;67902;52.154;5.430;2024-01-16T03:33:26;1.73;;;0.22;;
70899;SDS011;67902;52.154;5.430;2024-01-16T03:35:52;2.67;;;0.45;;
70899;SDS011;67902;52.154;5.430;2024-01-16T03:38:19;9.75;;;0.93;;
70899;SDS011;67902;52.154;5.430;2024-01-16T03:40:45;1.65;;;0.32;;
70899;SDS011;67902;52.154;5.430;2024-01-16T03:43:12;2.33;;;0.60;;
70899;SDS011;67902;52.154;5.430;2024-01-16T03:45:38;1.63;;;0.30;;
70899;SDS011;67902;52.154;5.430;2024-01-16T03:48:05;2.20;;;0.30;;
70899;SDS011;67902;52.154;5.430;2024-01-16T03:50:32;2.92;;;0.50;;
70899;SDS011;67902;52.154;5.430;2024-01-16T03:53:00;2.05;;;0.60;;
70899;SDS011;67902;52.154;5.430;2024-01-16T03:55:26;7.35;;;0.82;;
70899;SDS011;67902;52.154;5.430;2024-01-16T03:57:53;0.60;;;0.22;;
70899;SDS011;67902;52.154;5.430;2024-01-16T04:00:19;1.23;;;0.40;;
70899;SDS011;67902;52.154;5.430;2024-01-16T04:02:46;4.70;;;0.68;;
70899;SDS011;67902;52.154;5.430;2024-01-16T04:05:12;2.42;;;0.45;;
70899;SDS011;67902;52.154;5.430;2024-01-16T04:07:39;3.35;;;0.68;;
70899;SDS011;67902;52.154;5.430;2024-01-16T04:10:06;1.15;;;0.30;;
70899;SDS011;67902;52.154;5.430;2024-01-16T04:12:33;2.08;;;0.40;;
70899;SDS011;67902;52.154;5.430;2024-01-16T04:14:59;0.57;;;0.17;;
70899;SDS011;67902;52.154;5.430;2024-01-16T04:17:26;4.32;;;0.60;;
70899;SDS011;67902;52.154;5.430;2024-01-16T04:19:52;4.10;;;0.60;;
70899;SDS011;67902;52.154;5.430;2024-01-16T04:22:19;2.67;;;0.45;;
70899;SDS011;67902;52.154;5.430;2024-01-16T04:24:48;0.90;;;0.35;;
70899;SDS011;67902;52.154;5.430;2024-01-16T04:27:14;2.17;;;0.40;;
70899;SDS011;67902;52.154;5.430;2024-01-16T04:29:41;1.70;;;0.25;;
70899;SDS011;67902;52.154;5.430;2024-01-16T04:32:08;0.80;;;0.30;;
70899;SDS011;67902;52.154;5.430;2024-01-16T04:34:34;1.58;;;0.52;;
70899;SDS011;67902;52.154;5.430;2024-01-16T04:37:01;4.65;;;0.52;;
70899;SDS011;67902;52.154;5.430;2024-01-16T04:39:27;1.25;;;0.60;;
70899;SDS011;67902;52.154;5.430;2024-01-16T04:41:54;3.80;;;0.60;;
70899;SDS011;67902;52.154;5.430;2024-01-16T04:44:20;2.05;;;0.47;;
70899;SDS011;67902;52.154;5.430;2024-01-16T04:46:47;2.05;;;0.32;;
70899;SDS011;67902;52.154;5.430;2024-01-16T04:49:13;2.63;;;0.80;;
70899;SDS011;67902;52.154;5.430;2024-01-16T04:51:40;3.65;;;0.52;;
70899;SDS011;67902;52.154;5.430;2024-01-16T04:54:07;6.15;;;1.00;;
70899;SDS011;67902;52.154;5.430;2024-01-16T04:56:33;2.13;;;0.77;;
70899;SDS011;67902;52.154;5.430;2024-01-16T04:59:00;4.78;;;0.55;;
70899;SDS011;67902;52.154;5.430;2024-01-16T05:01:27;4.10;;;1.00;;
70899;SDS011;67902;52.154;5.430;2024-01-16T05:03:53;0.77;;;0.30;;
70899;SDS011;67902;52.154;5.430;2024-01-16T05:06:21;3.60;;;1.10;;
70899;SDS011;67902;52.154;5.430;2024-01-16T05:08:48;3.15;;;0.63;;
70899;SDS011;67902;52.154;5.430;2024-01-16T05:11:15;3.15;;;0.60;;
70899;SDS011;67902;52.154;5.430;2024-01-16T05:13:41;4.97;;;0.73;;
70899;SDS011;67902;52.154;5.430;2024-01-16T05:16:08;9.00;;;0.50;;
70899;SDS011;67902;52.154;5.430;2024-01-16T05:18:34;1.67;;;0.63;;
70899;SDS011;67902;52.154;5.430;2024-01-16T05:21:01;3.50;;;0.73;;
70899;SDS011;67902;52.154;5.430;2024-01-16T05:23:28;1.67;;;0.60;;
70899;SDS011;67902;52.154;5.430;2024-01-16T05:25:55;4.03;;;0.77;;
70899;SDS011;67902;52.154;5.430;2024-01-16T05:28:22;6.53;;;1.10;;
70899;SDS011;67902;52.154;5.430;2024-01-16T05:30:48;4.68;;;0.93;;
70899;SDS011;67902;52.154;5.430;2024-01-16T05:33:15;2.75;;;0.70;;
70899;SDS011;67902;52.154;5.430;2024-01-16T05:35:42;4.90;;;1.23;;
70899;SDS011;67902;52.154;5.430;2024-01-16T05:38:08;2.38;;;0.85;;
70899;SDS011;67902;52.154;5.430;2024-01-16T05:40:38;6.25;;;1.17;;
70899;SDS011;67902;52.154;5.430;2024-01-16T05:43:06;7.00;;;1.48;;
70899;SDS011;67902;52.154;5.430;2024-01-16T05:45:32;8.40;;;1.45;;
70899;SDS011;67902;52.154;5.430;2024-01-16T05:47:59;7.30;;;1.58;;
70899;SDS011;67902;52.154;5.430;2024-01-16T05:50:26;5.15;;;1.52;;
70899;SDS011;67902;52.154;5.430;2024-01-16T05:52:53;7.75;;;1.55;;
70899;SDS011;67902;52.154;5.430;2024-01-16T05:55:19;6.78;;;1.00;;
70899;SDS011;67902;52.154;5.430;2024-01-16T05:57:47;5.53;;;1.40;;
70899;SDS011;67902;52.154;5.430;2024-01-16T06:00:14;3.85;;;1.10;;
70899;SDS011;67902;52.154;5.430;2024-01-16T06:02:41;5.10;;;1.60;;
70899;SDS011;67902;52.154;5.430;2024-01-16T06:05:07;5.35;;;1.55;;
70899;SDS011;67902;52.154;5.430;2024-01-16T06:07:34;5.57;;;1.27;;
70899;SDS011;67902;52.154;5.430;2024-01-16T06:10:00;5.50;;;1.35;;
70899;SDS011;67902;52.154;5.430;2024-01-16T06:12:28;4.78;;;1.17;;
70899;SDS011;67902;52.154;5.430;2024-01-16T06:14:55;5.68;;;1.25;;
70899;SDS011;67902;52.154;5.430;2024-01-16T06:17:21;3.70;;;1.08;;
70899;SDS011;67902;52.154;5.430;2024-01-16T06:19:56;3.92;;;1.27;;
70899;SDS011;67902;52.154;5.430;2024-01-16T06:22:22;8.32;;;1.27;;
70899;SDS011;67902;52.154;5.430;2024-01-16T06:24:49;5.50;;;1.85;;
70899;SDS011;67902;52.154;5.430;2024-01-16T06:27:18;6.35;;;1.58;;
70899;SDS011;67902;52.154;5.430;2024-01-16T06:29:48;7.53;;;1.65;;
70899;SDS011;67902;52.154;5.430;2024-01-16T06:32:28;5.78;;;1.40;;
70899;SDS011;67902;52.154;5.430;2024-01-16T06:34:55;7.00;;;1.88;;
70899;SDS011;67902;52.154;5.430;2024-01-16T06:37:21;3.63;;;1.10;;
70899;SDS011;67902;52.154;5.430;2024-01-16T06:39:48;6.15;;;1.42;;
70899;SDS011;67902;52.154;5.430;2024-01-16T06:42:14;8.40;;;1.20;;
70899;SDS011;67902;52.154;5.430;2024-01-16T06:44:41;5.57;;;1.20;;
70899;SDS011;67902;52.154;5.430;2024-01-16T06:47:07;8.32;;;1.40;;
70899;SDS011;67902;52.154;5.430;2024-01-16T06:49:37;3.97;;;1.02;;
70899;SDS011;67902;52.154;5.430;2024-01-16T06:52:03;5.20;;;1.48;;
70899;SDS011;67902;52.154;5.430;2024-01-16T06:54:30;2.80;;;0.82;;
70899;SDS011;67902;52.154;5.430;2024-01-16T06:56:57;3.03;;;1.13;;
70899;SDS011;67902;52.154;5.430;2024-01-16T06:59:23;3.40;;;1.08;;
70899;SDS011;67902;52.154;5.430;2024-01-16T07:01:53;3.42;;;1.25;;
70899;SDS011;67902;52.154;5.430;2024-01-16T07:04:21;6.25;;;1.77;;
70899;SDS011;67902;52.154;5.430;2024-01-16T07:06:48;5.57;;;1.08;;
70899;SDS011;67902;52.154;5.430;2024-01-16T07:09:14;8.07;;;1.70;;
70899;SDS011;67902;52.154;5.430;2024-01-16T07:11:42;5.60;;;1.70;;
70899;SDS011;67902;52.154;5.430;2024-01-16T07:14:09;15.18;;;2.05;;
70899;SDS011;67902;52.154;5.430;2024-01-16T07:16:36;11.68;;;1.67;;
70899;SDS011;67902;52.154;5.430;2024-01-16T07:19:03;7.65;;;1.60;;
70899;SDS011;67902;52.154;5.430;2024-01-16T07:21:30;8.27;;;1.95;;
70899;SDS011;67902;52.154;5.430;2024-01-16T07:23:57;4.90;;;1.55;;
70899;SDS011;67902;52.154;5.430;2024-01-16T07:26:24;7.93;;;2.20;;
70899;SDS011;67902;52.154;5.430;2024-01-16T07:28:51;7.72;;;1.90;;
70899;SDS011;67902;52.154;5.430;2024-01-16T07:31:17;9.80;;;2.25;;
70899;SDS011;67902;52.154;5.430;2024-01-16T07:33:44;12.55;;;2.50;;
70899;SDS011;67902;52.154;5.430;2024-01-16T07:36:11;8.88;;;2.55;;
70899;SDS011;67902;52.154;5.430;2024-01-16T07:38:38;7.80;;;3.20;;
70899;SDS011;67902;52.154;5.430;2024-01-16T07:41:04;12.40;;;2.58;;
70899;SDS011;67902;52.154;5.430;2024-01-16T07:43:31;8.77;;;2.65;;
70899;SDS011;67902;52.154;5.430;2024-01-16T07:45:59;11.80;;;2.75;;
70899;SDS011;67902;52.154;5.430;2024-01-16T07:48:25;9.48;;;2.75;;
70899;SDS011;67902;52.154;5.430;2024-01-16T07:50:52;9.75;;;3.03;;
70899;SDS011;67902;52.154;5.430;2024-01-16T07:53:18;9.15;;;2.88;;
70899;SDS011;67902;52.154;5.430;2024-01-16T07:55:47;8.10;;;2.65;;
70899;SDS011;67902;52.154;5.430;2024-01-16T07:58:13;10.10;;;3.22;;
70899;SDS011;67902;52.154;5.430;2024-01-16T08:00:40;10.80;;;2.92;;
70899;SDS011;67902;52.154;5.430;2024-01-16T08:03:07;10.50;;;3.50;;
70899;SDS011;67902;52.154;5.430;2024-01-16T08:05:38;10.82;;;2.95;;
70899;SDS011;67902;52.154;5.430;2024-01-16T08:08:05;13.73;;;3.47;;
70899;SDS011;67902;52.154;5.430;2024-01-16T08:10:35;10.98;;;3.65;;
70899;SDS011;67902;52.154;5.430;2024-01-16T08:13:02;13.65;;;3.75;;
70899;SDS011;67902;52.154;5.430;2024-01-16T08:15:29;8.77;;;3.63;;
70899;SDS011;67902;52.154;5.430;2024-01-16T08:17:55;9.05;;;3.60;;
70899;SDS011;67902;52.154;5.430;2024-01-16T08:20:22;9.60;;;3.35;;
70899;SDS011;67902;52.154;5.430;2024-01-16T08:22:49;11.88;;;3.80;;
70899;SDS011;67902;52.154;5.430;2024-01-16T08:25:17;14.10;;;3.85;;
70899;SDS011;67902;52.154;5.430;2024-01-16T08:27:43;10.82;;;3.75;;
70899;SDS011;67902;52.154;5.430;2024-01-16T08:30:10;10.70;;;3.00;;
70899;SDS011;67902;52.154;5.430;2024-01-16T08:32:39;9.50;;;3.65;;
70899;SDS011;67902;52.154;5.430;2024-01-16T08:35:06;12.13;;;3.65;;
70899;SDS011;67902;52.154;5.430;2024-01-16T08:37:33;8.52;;;2.83;;
70899;SDS011;67902;52.154;5.430;2024-01-16T08:40:00;9.50;;;2.55;;
70899;SDS011;67902;52.154;5.430;2024-01-16T08:42:27;11.07;;;3.55;;
70899;SDS011;67902;52.154;5.430;2024-01-16T08:44:53;6.25;;;2.53;;
70899;SDS011;67902;52.154;5.430;2024-01-16T08:47:20;11.27;;;2.95;;
70899;SDS011;67902;52.154;5.430;2024-01-16T08:49:47;10.98;;;3.08;;
70899;SDS011;67902;52.154;5.430;2024-01-16T08:52:14;7.75;;;2.38;;
70899;SDS011;67902;52.154;5.430;2024-01-16T08:54:41;9.63;;;2.95;;
70899;SDS011;67902;52.154;5.430;2024-01-16T08:57:08;14.70;;;3.70;;
70899;SDS011;67902;52.154;5.430;2024-01-16T08:59:38;9.98;;;2.55;;
70899;SDS011;67902;52.154;5.430;2024-01-16T09:02:06;9.63;;;2.30;;
70899;SDS011;67902;52.154;5.430;2024-01-16T09:04:32;7.15;;;2.30;;
70899;SDS011;67902;52.154;5.430;2024-01-16T09:07:00;8.48;;;2.50;;
70899;SDS011;67902;52.154;5.430;2024-01-16T09:09:27;6.25;;;2.10;;
70899;SDS011;67902;52.154;5.430;2024-01-16T09:11:53;10.13;;;2.53;;
70899;SDS011;67902;52.154;5.430;2024-01-16T09:14:20;6.88;;;1.75;;
70899;SDS011;67902;52.154;5.430;2024-01-16T09:16:47;9.68;;;2.10;;
70899;SDS011;67902;52.154;5.430;2024-01-16T09:19:14;7.72;;;2.15;;
70899;SDS011;67902;52.154;5.430;2024-01-16T09:21:40;10.23;;;2.05;;
70899;SDS011;67902;52.154;5.430;2024-01-16T09:24:07;5.93;;;1.67;;
70899;SDS011;67902;52.154;5.430;2024-01-16T09:26:34;11.57;;;2.38;;
70899;SDS011;67902;52.154;5.430;2024-01-16T09:29:01;9.98;;;2.10;;
70899;SDS011;67902;52.154;5.430;2024-01-16T09:31:27;15.13;;;3.92;;
70899;SDS011;67902;52.154;5.430;2024-01-16T09:33:54;6.95;;;1.70;;
70899;SDS011;67902;52.154;5.430;2024-01-16T09:36:20;9.98;;;2.05;;
70899;SDS011;67902;52.154;5.430;2024-01-16T09:38:47;5.00;;;1.67;;
70899;SDS011;67902;52.154;5.430;2024-01-16T09:41:14;5.30;;;1.70;;
70899;SDS011;67902;52.154;5.430;2024-01-16T09:43:41;12.13;;;1.60;;
70899;SDS011;67902;52.154;5.430;2024-01-16T09:46:08;10.45;;;1.90;;
70899;SDS011;67902;52.154;5.430;2024-01-16T09:48:37;11.57;;;2.00;;
70899;SDS011;67902;52.154;5.430;2024-01-16T09:51:04;7.82;;;1.67;;
70899;SDS011;67902;52.154;5.430;2024-01-16T09:53:30;6.82;;;1.48;;
70899;SDS011;67902;52.154;5.430;2024-01-16T09:55:57;6.35;;;2.10;;
70899;SDS011;67902;52.154;5.430;2024-01-16T09:58:28;7.05;;;1.83;;
70899;SDS011;67902;52.154;5.430;2024-01-16T10:01:00;8.15;;;1.90;;
70899;SDS011;67902;52.154;5.430;2024-01-16T10:03:27;6.10;;;2.10;;
70899;SDS011;67902;52.154;5.430;2024-01-16T10:05:57;6.13;;;1.90;;
70899;SDS011;67902;52.154;5.430;2024-01-16T10:08:27;6.47;;;1.70;;
70899;SDS011;67902;52.154;5.430;2024-01-16T10:10:54;4.97;;;1.63;;
70899;SDS011;67902;52.154;5.430;2024-01-16T10:13:21;7.18;;;1.80;;
70899;SDS011;67902;52.154;5.430;2024-01-16T10:15:51;5.60;;;1.70;;
70899;SDS011;67902;52.154;5.430;2024-01-16T10:18:22;7.07;;;1.70;;
70899;SDS011;67902;52.154;5.430;2024-01-16T10:20:52;6.35;;;1.77;;
70899;SDS011;67902;52.154;5.430;2024-01-16T10:23:23;8.38;;;2.28;;
70899;SDS011;67902;52.154;5.430;2024-01-16T10:26:09;8.18;;;1.65;;
70899;SDS011;67902;52.154;5.430;2024-01-16T10:28:38;8.52;;;2.05;;
70899;SDS011;67902;52.154;5.430;2024-01-16T10:31:06;11.70;;;2.42;;
70899;SDS011;67902;52.154;5.430;2024-01-16T10:33:34;5.35;;;1.90;;
70899;SDS011;67902;52.154;5.430;2024-01-16T10:36:14;7.43;;;1.95;;
70899;SDS011;67902;52.154;5.430;2024-01-16T10:38:47;8.60;;;2.17;;
70899;SDS011;67902;52.154;5.430;2024-01-16T10:41:14;14.35;;;2.10;;
70899;SDS011;67902;52.154;5.430;2024-01-16T10:43:43;9.40;;;2.00;;
70899;SDS011;67902;52.154;5.430;2024-01-16T10:46:14;5.95;;;2.38;;
70899;SDS011;67902;52.154;5.430;2024-01-16T10:48:42;10.35;;;2.17;;
70899;SDS011;67902;52.154;5.430;2024-01-16T10:51:25;8.75;;;2.40;;
70899;SDS011;67902;52.154;5.430;2024-01-16T10:54:00;5.63;;;1.80;;
70899;SDS011;67902;52.154;5.430;2024-01-16T10:56:31;6.85;;;2.28;;
70899;SDS011;67902;52.154;5.430;2024-01-16T11:01:34;5.80;;;2.00;;
70899;SDS011;67902;52.154;5.430;2024-01-16T11:06:29;8.10;;;1.88;;
70899;SDS011;67902;52.154;5.430;2024-01-16T11:08:57;10.32;;;2.35;;
70899;SDS011;67902;52.154;5.430;2024-01-16T11:11:24;10.23;;;1.90;;
70899;SDS011;67902;52.154;5.430;2024-01-16T11:13:53;4.80;;;1.70;;
70899;SDS011;67902;52.154;5.430;2024-01-16T11:16:21;5.45;;;1.73;;
70899;SDS011;67902;52.154;5.430;2024-01-16T11:18:49;11.52;;;2.30;;
70899;SDS011;67902;52.154;5.430;2024-01-16T11:21:16;7.60;;;1.83;;
70899;SDS011;67902;52.154;5.430;2024-01-16T11:23:44;5.18;;;1.65;;
70899;SDS011;67902;52.154;5.430;2024-01-16T11:26:24;10.25;;;1.80;;
70899;SDS011;67902;52.154;5.430;2024-01-16T11:29:01;9.13;;;2.10;;
70899;SDS011;67902;52.154;5.430;2024-01-16T11:31:53;8.90;;;1.95;;
70899;SDS011;67902;52.154;5.430;2024-01-16T11:37:07;6.93;;;1.88;;
70899;SDS011;67902;52.154;5.430;2024-01-16T11:39:34;10.07;;;1.80;;
70899;SDS011;67902;52.154;5.430;2024-01-16T11:42:01;6.75;;;2.03;;
70899;SDS011;67902;52.154;5.430;2024-01-16T11:47:21;10.57;;;1.77;;
70899;SDS011;67902;52.154;5.430;2024-01-16T11:50:10;8.68;;;2.10;;
70899;SDS011;67902;52.154;5.430;2024-01-16T11:52:41;6.93;;;1.80;;
70899;SDS011;67902;52.154;5.430;2024-01-16T12:00:26;4.25;;;1.40;;
70899;SDS011;67902;52.154;5.430;2024-01-16T12:02:58;7.28;;;1.85;;
70899;SDS011;67902;52.154;5.430;2024-01-16T12:05:29;7.07;;;1.40;;
70899;SDS011;67902;52.154;5.430;2024-01-16T12:07:56;10.48;;;1.80;;
70899;SDS011;67902;52.154;5.430;2024-01-16T12:10:23;6.40;;;1.90;;
70899;SDS011;67902;52.154;5.430;2024-01-16T12:12:51;5.15;;;1.67;;
70899;SDS011;67902;52.154;5.430;2024-01-16T12:15:28;4.70;;;1.33;;
70899;SDS011;67902;52.154;5.430;2024-01-16T12:17:58;6.03;;;1.67;;
70899;SDS011;67902;52.154;5.430;2024-01-16T12:20:28;7.45;;;1.85;;
70899;SDS011;67902;52.154;5.430;2024-01-16T12:23:03;6.55;;;1.70;;
70899;SDS011;67902;52.154;5.430;2024-01-16T12:25:31;7.13;;;1.58;;
70899;SDS011;67902;52.154;5.430;2024-01-16T12:28:21;9.70;;;1.80;;
70899;SDS011;67902;52.154;5.430;2024-01-16T12:30:58;6.18;;;1.45;;
70899;SDS011;67902;52.154;5.430;2024-01-16T12:33:25;6.28;;;1.52;;
70899;SDS011;67902;52.154;5.430;2024-01-16T12:36:00;9.40;;;1.85;;
70899;SDS011;67902;52.154;5.430;2024-01-16T12:38:29;8.13;;;1.90;;
70899;SDS011;67902;52.154;5.430;2024-01-16T12:40:56;5.25;;;1.25;;
70899;SDS011;67902;52.154;5.430;2024-01-16T12:43:24;7.75;;;1.77;;
70899;SDS011;67902;52.154;5.430;2024-01-16T12:45:57;4.95;;;1.77;;
70899;SDS011;67902;52.154;5.430;2024-01-16T12:48:26;7.07;;;1.65;;
70899;SDS011;67902;52.154;5.430;2024-01-16T12:51:03;5.15;;;1.60;;
70899;SDS011;67902;52.154;5.430;2024-01-16T12:53:31;7.50;;;1.98;;
70899;SDS011;67902;52.154;5.430;2024-01-16T12:56:00;6.63;;;1.60;;
70899;SDS011;67902;52.154;5.430;2024-01-16T12:58:34;8.27;;;1.80;;
70899;SDS011;67902;52.154;5.430;2024-01-16T13:01:20;6.50;;;1.83;;
70899;SDS011;67902;52.154;5.430;2024-01-16T13:04:04;5.72;;;1.88;;
70899;SDS011;67902;52.154;5.430;2024-01-16T13:06:30;10.35;;;2.70;;
70899;SDS011;67902;52.154;5.430;2024-01-16T13:14:25;9.45;;;2.53;;
70899;SDS011;67902;52.154;5.430;2024-01-16T13:16:52;5.65;;;2.03;;
70899;SDS011;67902;52.154;5.430;2024-01-16T13:19:22;6.78;;;2.15;;
70899;SDS011;67902;52.154;5.430;2024-01-16T13:21:49;6.32;;;2.08;;
70899;SDS011;67902;52.154;5.430;2024-01-16T13:24:16;5.70;;;1.88;;
70899;SDS011;67902;52.154;5.430;2024-01-16T13:26:50;6.28;;;2.42;;
70899;SDS011;67902;52.154;5.430;2024-01-16T13:29:19;7.47;;;1.98;;
70899;SDS011;67902;52.154;5.430;2024-01-16T13:31:46;9.80;;;2.47;;
70899;SDS011;67902;52.154;5.430;2024-01-16T13:34:13;8.07;;;2.05;;
70899;SDS011;67902;52.154;5.430;2024-01-16T13:36:40;6.22;;;2.17;;
70899;SDS011;67902;52.154;5.430;2024-01-16T13:39:29;8.00;;;2.10;;
70899;SDS011;67902;52.154;5.430;2024-01-16T13:41:55;6.93;;;1.98;;
70899;SDS011;67902;52.154;5.430;2024-01-16T13:44:22;9.07;;;2.28;;
70899;SDS011;67902;52.154;5.430;2024-01-16T13:46:48;12.77;;;2.45;;
70899;SDS011;67902;52.154;5.430;2024-01-16T13:49:31;7.25;;;1.95;;
70899;SDS011;67902;52.154;5.430;2024-01-16T13:52:00;9.80;;;2.33;;
70899;SDS011;67902;52.154;5.430;2024-01-16T13:54:28;6.43;;;1.92;;
70899;SDS011;67902;52.154;5.430;2024-01-16T13:56:55;7.78;;;2.20;;
70899;SDS011;67902;52.154;5.430;2024-01-16T13:59:33;7.43;;;1.95;;
70899;SDS011;67902;52.154;5.430;2024-01-16T14:02:01;7.05;;;1.90;;
70899;SDS011;67902;52.154;5.430;2024-01-16T14:04:29;6.90;;;2.15;;
70899;SDS011;67902;52.154;5.430;2024-01-16T14:06:55;6.40;;;2.03;;
70899;SDS011;67902;52.154;5.430;2024-01-16T14:09:38;5.97;;;1.77;;
70899;SDS011;67902;52.154;5.430;2024-01-16T14:12:08;7.50;;;2.08;;
70899;SDS011;67902;52.154;5.430;2024-01-16T14:14:35;6.40;;;1.80;;
70899;SDS011;67902;52.154;5.430;2024-01-16T14:17:04;7.80;;;2.03;;
70899;SDS011;67902;52.154;5.430;2024-01-16T14:19:31;6.63;;;2.00;;
70899;SDS011;67902;52.154;5.430;2024-01-16T14:21:58;7.03;;;2.17;;
70899;SDS011;67902;52.154;5.430;2024-01-16T14:24:25;9.07;;;2.13;;
70899;SDS011;67902;52.154;5.430;2024-01-16T14:26:52;7.97;;;2.08;;
70899;SDS011;67902;52.154;5.430;2024-01-16T14:29:18;8.88;;;2.30;;
70899;SDS011;67902;52.154;5.430;2024-01-16T14:31:45;7.20;;;2.15;;
70899;SDS011;67902;52.154;5.430;2024-01-16T14:34:16;8.73;;;1.88;;
70899;SDS011;67902;52.154;5.430;2024-01-16T14:36:45;7.65;;;2.40;;
70899;SDS011;67902;52.154;5.430;2024-01-16T14:39:12;8.32;;;1.95;;
70899;SDS011;67902;52.154;5.430;2024-01-16T14:41:48;7.93;;;1.73;;
70899;SDS011;67902;52.154;5.430;2024-01-16T14:44:15;6.05;;;1.70;;
70899;SDS011;67902;52.154;5.430;2024-01-16T14:46:41;6.53;;;1.92;;
70899;SDS011;67902;52.154;5.430;2024-01-16T14:49:15;7.93;;;2.28;;
70899;SDS011;67902;52.154;5.430;2024-01-16T14:51:42;8.25;;;2.20;;
70899;SDS011;67902;52.154;5.430;2024-01-16T14:54:09;10.82;;;2.70;;
70899;SDS011;67902;52.154;5.430;2024-01-16T14:56:35;10.32;;;2.17;;
70899;SDS011;67902;52.154;5.430;2024-01-16T14:59:02;8.88;;;2.33;;
70899;SDS011;67902;52.154;5.430;2024-01-16T15:01:30;8.13;;;2.00;;
70899;SDS011;67902;52.154;5.430;2024-01-16T15:03:56;7.00;;;2.25;;
70899;SDS011;67902;52.154;5.430;2024-01-16T15:06:24;9.18;;;2.45;;
70899;SDS011;67902;52.154;5.430;2024-01-16T15:08:53;7.80;;;2.38;;
70899;SDS011;67902;52.154;5.430;2024-01-16T15:11:20;6.55;;;1.95;;
70899;SDS011;67902;52.154;5.430;2024-01-16T15:21:10;6.30;;;2.30;;
70899;SDS011;67902;52.154;5.430;2024-01-16T15:23:37;8.85;;;2.28;;
70899;SDS011;67902;52.154;5.430;2024-01-16T15:26:04;7.47;;;1.95;;
70899;SDS011;67902;52.154;5.430;2024-01-16T15:28:31;8.70;;;2.55;;